createdAt,value
2023-05-18T00:04:38.622Z,101523.63
2023-05-18T00:09:37.535Z,101527.34
2023-05-18T00:14:33.949Z,101525.19
2023-05-18T00:19:30.454Z,101521.69
2023-05-18T00:24:26.816Z,101521.50
2023-05-18T00:29:23.308Z,101526.31
2023-05-18T00:34:19.707Z,101521.00
2023-05-18T00:39:16.403Z,101527.78
2023-05-18T00:44:12.840Z,101524.50
2023-05-18T00:49:09.409Z,101523.00
2023-05-18T00:54:06.488Z,101521.44
2023-05-18T00:59:03.458Z,101519.75
2023-05-18T01:04:03.477Z,101524.47
2023-05-18T01:09:04.472Z,101515.63
2023-05-18T01:14:17.858Z,101522.50
2023-05-18T01:19:35.912Z,101527.09
2023-05-18T01:24:42.683Z,101525.09
2023-05-18T01:29:39.825Z,101520.38
2023-05-18T01:34:36.347Z,101518.53
2023-05-18T01:39:32.748Z,101514.13
2023-05-18T01:44:36.485Z,101523.28
2023-05-18T01:49:51.520Z,101527.09
2023-05-18T01:54:52.390Z,101522.31
2023-05-18T01:59:49.884Z,101519.81
2023-05-18T02:04:46.366Z,101521.06
2023-05-18T02:09:44.291Z,101519.75
2023-05-18T02:14:40.901Z,101522.56
2023-05-18T02:19:40.141Z,101524.03
2023-05-18T02:24:36.536Z,101519.19
2023-05-18T02:29:32.944Z,101520.94
2023-05-18T02:34:32.961Z,101524.59
2023-05-18T02:39:30.014Z,101523.69
2023-05-18T02:44:26.595Z,101519.59
2023-05-18T02:49:23.169Z,101516.38
2023-05-18T02:54:19.625Z,101528.78
2023-05-18T02:59:16.225Z,101529.03
2023-05-18T03:04:13.972Z,101540.72
2023-05-18T03:09:10.764Z,101526.56
2023-05-18T03:14:07.206Z,101528.69
2023-05-18T03:19:03.594Z,101536.63
2023-05-18T03:24:00.367Z,101535.84
2023-05-18T03:28:57.715Z,101553.28
2023-05-18T03:33:54.120Z,101536.63
2023-05-18T03:38:50.532Z,101548.00
2023-05-18T03:43:46.918Z,101546.28
2023-05-18T03:48:43.293Z,101549.94
2023-05-18T03:53:39.739Z,101543.84
2023-05-18T03:58:36.151Z,101549.88
2023-05-18T04:03:34.793Z,101554.28
2023-05-18T04:08:34.456Z,101554.28
2023-05-18T04:13:30.997Z,101554.97
2023-05-18T04:18:30.123Z,101553.75
2023-05-18T04:23:26.668Z,101555.84
2023-05-18T04:28:23.072Z,101564.97
2023-05-18T04:33:20.498Z,101561.38
2023-05-18T04:38:16.909Z,101570.47
2023-05-18T04:43:13.269Z,101568.41
2023-05-18T04:48:10.819Z,101562.53
2023-05-18T04:53:09.039Z,101563.81
2023-05-18T04:58:06.012Z,101564.84
2023-05-18T05:03:02.565Z,101555.47
2023-05-18T05:07:59.039Z,101562.00
2023-05-18T05:12:55.522Z,101562.28
2023-05-18T05:17:52.048Z,101564.19
2023-05-18T05:22:48.543Z,101566.28
2023-05-18T05:27:44.933Z,101572.28
2023-05-18T05:32:41.401Z,101572.88
2023-05-18T05:37:37.831Z,101577.38
2023-05-18T05:42:34.721Z,101585.72
2023-05-18T05:47:31.359Z,101586.91
2023-05-18T05:52:28.904Z,101583.81
2023-05-18T05:57:25.786Z,101587.97
2023-05-18T06:02:22.254Z,101592.22
2023-05-18T06:07:18.689Z,101585.00
2023-05-18T06:12:15.096Z,101593.06
2023-05-18T06:17:11.591Z,101593.66
2023-05-18T06:22:07.998Z,101601.88
2023-05-18T06:27:04.734Z,101603.91
2023-05-18T06:32:01.688Z,101613.41
2023-05-18T06:36:58.991Z,101614.19
2023-05-18T06:41:55.446Z,101609.09
2023-05-18T06:46:51.943Z,101618.63
2023-05-18T06:51:48.540Z,101625.50
2023-05-18T06:56:44.969Z,101630.13
2023-05-18T07:01:41.476Z,101622.16
2023-05-18T07:06:38.320Z,101623.19
2023-05-18T07:11:34.867Z,101621.91
2023-05-18T07:16:31.874Z,101626.97
2023-05-18T07:21:28.714Z,101612.44
2023-05-18T07:26:25.159Z,101619.66
2023-05-18T07:31:22.229Z,101622.56
2023-05-18T07:36:18.710Z,101623.84
2023-05-18T07:41:15.111Z,101623.34
2023-05-18T07:46:11.562Z,101617.25
2023-05-18T07:51:08.252Z,101616.72
2023-05-18T07:56:05.808Z,101621.44
2023-05-18T08:01:02.358Z,101613.31
2023-05-18T08:06:00.189Z,101619.97
2023-05-18T08:10:57.241Z,101609.13
2023-05-18T08:16:09.800Z,101614.63
2023-05-18T08:21:10.179Z,101616.91
2023-05-18T08:26:09.022Z,101602.31
2023-05-18T08:31:06.202Z,101604.75
2023-05-18T08:36:02.657Z,101604.16
2023-05-18T08:41:08.625Z,101593.31
2023-05-18T08:46:10.954Z,101584.50
2023-05-18T08:51:09.446Z,101582.06
2023-05-18T08:56:06.126Z,101590.09
2023-05-18T09:01:04.333Z,101588.22
2023-05-18T09:06:02.977Z,101588.25
2023-05-18T09:11:02.326Z,101575.50
2023-05-18T09:15:59.214Z,101579.09
2023-05-18T09:20:56.041Z,101568.69
2023-05-18T09:25:52.983Z,101558.44
2023-05-18T09:30:49.369Z,101566.88
2023-05-18T09:35:47.058Z,101568.56
2023-05-18T09:40:46.734Z,101551.88
2023-05-18T09:45:45.232Z,101550.44
2023-05-18T09:50:43.869Z,101556.16
2023-05-18T09:55:48.944Z,101559.91
2023-05-18T10:00:53.970Z,101562.03
2023-05-18T10:05:51.799Z,101549.81
2023-05-18T10:10:49.711Z,101561.81
2023-05-18T10:15:57.038Z,101550.63
2023-05-18T10:21:00.008Z,101537.34
2023-05-18T10:25:57.443Z,101532.72
2023-05-18T10:30:55.682Z,101539.59
2023-05-18T10:35:54.609Z,101531.88
2023-05-18T10:40:53.021Z,101530.56
2023-05-18T10:45:58.588Z,101528.56
2023-05-18T10:50:57.669Z,101524.53
2023-05-18T10:55:54.518Z,101518.84
2023-05-18T11:00:54.070Z,101526.19
2023-05-18T11:05:52.321Z,101525.63
2023-05-18T11:10:48.712Z,101524.66
2023-05-18T11:15:51.122Z,101508.22
2023-05-18T11:20:48.597Z,101505.63
2023-05-18T11:25:45.322Z,101498.75
2023-05-18T11:30:41.943Z,101510.50
2023-05-18T11:36:07.147Z,101497.31
2023-05-18T11:41:03.568Z,101497.34
2023-05-18T11:45:59.939Z,101493.88
2023-05-18T11:50:56.687Z,101495.19
2023-05-18T11:55:59.530Z,101490.88
2023-05-18T12:00:57.626Z,101484.97
2023-05-18T12:05:58.199Z,101476.56
2023-05-18T12:10:55.198Z,101474.19
2023-05-18T12:15:51.798Z,101477.81
2023-05-18T12:20:49.812Z,101470.94
2023-05-18T12:25:46.480Z,101469.56
2023-05-18T12:30:44.024Z,101467.91
2023-05-18T12:35:40.482Z,101466.69
2023-05-18T12:40:46.408Z,101461.22
2023-05-18T12:45:44.530Z,101463.19
2023-05-18T12:50:47.878Z,101451.63
2023-05-18T12:55:44.329Z,101447.88
2023-05-18T13:00:44.444Z,101440.63
2023-05-18T13:05:42.332Z,101441.94
2023-05-18T13:10:38.740Z,101447.72
2023-05-18T13:15:39.228Z,101429.09
2023-05-18T13:20:41.671Z,101431.72
2023-05-18T13:25:39.008Z,101417.34
2023-05-18T13:30:35.508Z,101414.59
2023-05-18T13:35:32.336Z,101419.31
2023-05-18T13:40:29.226Z,101417.81
2023-05-18T13:45:25.839Z,101412.00
2023-05-18T13:50:23.185Z,101405.63
2023-05-18T13:55:19.811Z,101393.72
2023-05-18T14:00:17.314Z,101390.59
2023-05-18T14:05:14.498Z,101379.16
2023-05-18T14:10:12.495Z,101377.84
2023-05-18T14:15:09.300Z,101367.56
2023-05-18T14:20:06.662Z,101359.72
2023-05-18T14:25:03.265Z,101362.50
2023-05-18T14:29:59.709Z,101363.38
2023-05-18T14:34:57.895Z,101366.00
2023-05-18T14:39:54.911Z,101356.03
2023-05-18T14:44:51.602Z,101350.94
2023-05-18T14:49:48.020Z,101367.38
2023-05-18T14:54:44.450Z,101355.84
2023-05-18T14:59:41.040Z,101347.25
2023-05-18T15:04:37.457Z,101346.53
2023-05-18T15:09:33.860Z,101354.19
2023-05-18T15:14:30.348Z,101347.69
2023-05-18T15:19:26.864Z,101338.03
2023-05-18T15:24:24.827Z,101350.09
2023-05-18T15:29:21.995Z,101337.59
2023-05-18T15:34:18.423Z,101335.72
2023-05-18T15:39:15.403Z,101332.50
2023-05-18T15:44:11.806Z,101334.75
2023-05-18T15:49:08.395Z,101329.84
2023-05-18T15:54:04.812Z,101326.38
2023-05-18T15:59:01.262Z,101327.25
2023-05-18T16:03:57.760Z,101323.50
2023-05-18T16:08:55.947Z,101324.69
2023-05-18T16:13:56.757Z,101318.50
2023-05-18T16:18:53.957Z,101318.28
2023-05-18T16:23:50.389Z,101323.31
2023-05-18T16:28:46.950Z,101311.63
2023-05-18T16:33:43.377Z,101305.06
2023-05-18T16:38:39.864Z,101308.84
2023-05-18T16:43:36.454Z,101306.22
2023-05-18T16:48:32.812Z,101300.94
2023-05-18T16:59:46.670Z,101284.56
2023-05-18T17:04:45.916Z,101298.84
2023-05-18T17:09:42.825Z,101288.06
2023-05-18T17:14:39.311Z,101295.78
2023-05-18T17:19:36.117Z,101306.94
2023-05-18T17:24:32.492Z,101295.59
2023-05-18T17:29:29.290Z,101294.56
2023-05-18T17:34:30.659Z,101302.31
2023-05-18T17:39:27.039Z,101304.69
2023-05-18T17:44:23.372Z,101292.25
2023-05-18T17:49:19.711Z,101291.72
2023-05-18T17:54:16.270Z,101289.00
2023-05-18T17:59:13.465Z,101289.56
2023-05-18T18:04:09.929Z,101296.63
2023-05-18T18:09:08.927Z,101293.94
2023-05-18T18:14:06.032Z,101298.50
2023-05-18T18:19:02.812Z,101295.16
2023-05-18T18:23:59.451Z,101306.00
2023-05-18T18:28:55.979Z,101309.16
2023-05-18T18:33:52.398Z,101315.91
2023-05-18T18:38:49.054Z,101320.19
2023-05-18T18:43:45.638Z,101338.94
2023-05-18T18:48:42.011Z,101341.94
2023-05-18T18:53:38.356Z,101347.16
2023-05-18T18:58:34.671Z,101352.44
2023-05-18T19:03:32.866Z,101364.06
2023-05-18T19:08:29.350Z,101368.09
2023-05-18T19:13:25.709Z,101371.22
2023-05-18T19:18:22.131Z,101376.75
2023-05-18T19:23:18.572Z,101383.50
2023-05-18T19:28:15.030Z,101393.16
2023-05-18T19:33:11.450Z,101395.25
2023-05-18T19:38:07.927Z,101395.72
2023-05-18T19:43:04.344Z,101398.56
2023-05-18T19:48:00.746Z,101398.91
2023-05-18T19:52:57.169Z,101403.50
2023-05-18T19:57:53.803Z,101408.56
2023-05-18T20:02:50.256Z,101403.50
2023-05-18T20:07:46.685Z,101403.31
2023-05-18T20:12:43.172Z,101407.69
2023-05-18T20:17:39.664Z,101409.34
2023-05-18T20:22:36.088Z,101414.66
2023-05-18T20:27:32.593Z,101414.41
2023-05-18T20:32:29.206Z,101417.88
2023-05-18T20:37:28.538Z,101422.72
2023-05-18T20:42:31.039Z,101421.22
2023-05-18T20:47:29.650Z,101425.75
2023-05-18T20:52:26.453Z,101417.09
2023-05-18T20:57:22.978Z,101423.22
2023-05-18T21:02:19.696Z,101428.94
2023-05-18T21:07:16.553Z,101424.75
2023-05-18T21:12:12.938Z,101430.59
2023-05-18T21:17:09.451Z,101426.34
2023-05-18T21:22:06.014Z,101429.47
2023-05-18T21:27:03.312Z,101428.38
2023-05-18T21:31:59.857Z,101423.13
2023-05-18T21:36:56.536Z,101424.25
2023-05-18T21:41:52.938Z,101429.06
2023-05-18T21:46:54.829Z,101433.41
2023-05-18T21:51:51.618Z,101437.88
2023-05-18T21:56:48.054Z,101438.81
2023-05-18T22:01:44.537Z,101432.47
2023-05-18T22:06:41.100Z,101427.97
2023-05-18T22:11:37.587Z,101436.31
2023-05-18T22:16:34.035Z,101427.09
2023-05-18T22:21:30.992Z,101427.25
2023-05-18T22:26:27.480Z,101425.22
2023-05-18T22:31:23.913Z,101430.97
2023-05-18T22:36:21.766Z,101417.19
2023-05-18T22:41:18.761Z,101412.34
2023-05-18T22:46:15.243Z,101411.31
2023-05-18T22:51:11.670Z,101414.94
2023-05-18T22:56:08.147Z,101409.94
2023-05-18T23:01:04.531Z,101415.53
2023-05-18T23:06:03.095Z,101416.03
2023-05-18T23:11:01.678Z,101422.41
2023-05-18T23:16:01.009Z,101416.97
2023-05-18T23:20:58.712Z,101410.88
2023-05-18T23:25:55.451Z,101416.88
2023-05-18T23:30:51.916Z,101427.25
2023-05-18T23:35:49.978Z,101431.22
2023-05-18T23:40:47.474Z,101422.88
2023-05-18T23:45:44.126Z,101407.28
2023-05-18T23:50:41.437Z,101408.53
2023-05-18T23:55:40.226Z,101405.09
